Terminal Aerodrome Forecast
Issued by NWS Northern Indiana

Home | Current Version | Previous Version | Text Only | Print | Product List | Glossary On
Versions: 1 2 3 4 5 6 7 8 9 10 11 12 13 14 15 16 17 18 19
000
FTUS43 KIWX 252339
TAFFWA
TAF
KFWA 252339Z 2600/2624 30010KT P6SM SCT015 OVC025
      TEMPO 2600/2602 OVC015
     FM260500 28008KT P6SM BKN020
     FM260800 28006KT 3SM BR BKN010
     FM261000 27003KT 2SM BR BKN007
     FM261400 28004KT P6SM SCT030
     FM262000 21004KT P6SM BKN100=

USA.gov is the U.S. government's official web portal to all federal, state and local government web resources and services.